Time;durP1;ratioP1;P1;durP2;ratioP2;P2;SDS_P1;SDS_P2;PMS_P1;PMS_P2;Temp;Humidity;BMP_temperature;BMP_pressure;BME280_temperature;BME280_humidity;BME280_pressure;Samples;Min_cycle;Max_cycle;Signal;HPM_P1;HPM_P2
2023/05/14 00:02:12;;;;;;;11.40;6.10;;;;;;;15.80;43.36;99877.98;78307;1292;3026584;-71
2023/05/14 00:04:39;;;;;;;15.00;8.00;;;;;;;15.68;43.89;99873.23;79485;1292;3013620;-69
2023/05/14 00:07:06;;;;;;;13.40;7.00;;;;;;;15.53;44.48;99879.98;79573;1292;3011906;-71
2023/05/14 00:09:34;;;;;;;14.90;7.80;;;;;;;15.49;44.48;99876.58;78312;1295;3053290;-70
2023/05/14 00:12:01;;;;;;;23.00;10.10;;;;;;;15.46;44.16;99873.24;79587;1298;3014649;-65
2023/05/14 00:14:28;;;;;;;14.50;9.10;;;;;;;15.49;43.98;99876.08;79640;1292;3011903;-69
2023/05/14 00:16:57;;;;;;;20.40;9.80;;;;;;;15.51;43.49;99875.35;78452;1293;3068293;-67
2023/05/14 00:19:23;;;;;;;19.90;11.30;;;;;;;15.53;43.01;99875.27;79569;1291;3014759;-71
2023/05/14 00:21:50;;;;;;;19.70;12.10;;;;;;;15.55;42.61;99876.29;79682;1292;3012939;-68
2023/05/14 00:24:17;;;;;;;15.00;8.50;;;;;;;15.63;41.65;99877.67;78351;1297;3053750;-73
2023/05/14 00:26:44;;;;;;;11.50;6.40;;;;;;;15.74;40.51;99877.67;79559;1298;3018698;-70
2023/05/14 00:29:11;;;;;;;11.20;6.50;;;;;;;15.89;40.13;99879.78;79577;1292;3011225;-72
2023/05/14 00:31:39;;;;;;;9.50;5.80;;;;;;;15.99;39.87;99874.98;78409;1296;3028230;-71
2023/05/14 00:34:05;;;;;;;12.60;6.50;;;;;;;16.03;39.48;99876.57;79803;1292;3020380;-72
2023/05/14 00:36:32;;;;;;;21.20;8.60;;;;;;;16.09;39.55;99880.06;79552;1295;3011811;-69
2023/05/14 00:39:00;;;;;;;11.30;5.70;;;;;;;16.11;39.40;99879.67;78371;1293;3025208;-69
2023/05/14 00:41:26;;;;;;;10.90;5.00;;;;;;;16.17;38.78;99876.05;79595;1306;3018690;-65
2023/05/14 00:43:53;;;;;;;10.40;4.70;;;;;;;16.26;38.15;99873.75;79588;1297;3011908;-69
2023/05/14 00:46:21;;;;;;;8.00;3.20;;;;;;;16.32;38.03;99875.08;78406;1292;3028008;-70
2023/05/14 00:48:47;;;;;;;9.60;4.50;;;;;;;16.38;37.82;99872.48;79711;1297;3011682;-66
2023/05/14 00:51:15;;;;;;;9.50;4.30;;;;;;;16.37;38.23;99873.28;79578;1297;3011624;-77
2023/05/14 00:53:43;;;;;;;9.60;3.90;;;;;;;16.36;38.30;99873.54;78274;1295;3028681;-73
2023/05/14 00:56:09;;;;;;;10.00;3.30;;;;;;;16.38;38.17;99870.34;79797;1297;3018772;-61
2023/05/14 00:58:36;;;;;;;11.40;4.10;;;;;;;16.38;38.18;99872.27;79635;1292;3012478;-75
2023/05/14 01:01:04;;;;;;;10.20;2.90;;;;;;;16.37;38.27;99873.95;78254;1297;3028465;-71
2023/05/14 01:03:31;;;;;;;5.50;2.90;;;;;;;16.37;38.40;99877.19;79592;1292;3013193;-64
2023/05/14 01:06:20;;;;;;;5.20;3.20;;;;;;;16.38;38.23;99877.95;79356;1295;3011462;-74
2023/05/14 01:09:08;;;;;;;5.10;2.80;;;;;;;16.37;38.29;99882.29;78340;1298;3053936;-70
2023/05/14 01:12:11;;;;;;;6.20;2.70;;;;;;;16.33;38.37;99878.94;78465;1297;3049993;-64
2023/05/14 01:14:54;;;;;;;7.20;3.60;;;;;;;16.31;38.80;99881.71;78353;1296;3052888;-72
2023/05/14 01:17:25;;;;;;;7.70;3.50;;;;;;;16.22;39.09;99881.66;78349;1297;3053437;-68
2023/05/14 01:19:52;;;;;;;8.30;4.30;;;;;;;16.17;39.55;99882.11;79585;1292;3013157;-68
2023/05/14 01:22:20;;;;;;;10.50;4.50;;;;;;;16.10;39.64;99882.30;78175;1295;3028578;-69
2023/05/14 01:24:47;;;;;;;8.40;4.40;;;;;;;16.07;39.75;99879.66;79626;1297;3012865;-75
2023/05/14 01:27:37;;;;;;;12.60;4.50;;;;;;;15.99;39.99;99880.95;79581;1292;3011757;-69
2023/05/14 01:30:16;;;;;;;10.00;5.00;;;;;;;15.91;40.26;99885.77;78573;1293;3049925;-69
2023/05/14 01:32:47;;;;;;;9.00;4.90;;;;;;;15.85;40.35;99882.03;78360;1296;3052482;-73
2023/05/14 01:35:14;;;;;;;9.70;4.80;;;;;;;15.78;40.58;99879.02;79375;1294;3013865;-71
2023/05/14 01:37:41;;;;;;;10.90;5.90;;;;;;;15.75;40.71;99880.25;79339;1294;3011611;-74
2023/05/14 01:40:10;;;;;;;10.10;5.20;;;;;;;15.74;40.59;99883.49;78356;1292;3056532;-75
2023/05/14 01:42:37;;;;;;;9.10;5.30;;;;;;;15.75;40.73;99882.77;79365;1294;3013672;-66
2023/05/14 01:45:04;;;;;;;10.20;5.40;;;;;;;15.72;40.81;99884.07;79516;1292;3011916;-68
2023/05/14 01:47:32;;;;;;;12.20;6.10;;;;;;;15.69;40.98;99877.94;78362;1298;3052704;-66
2023/05/14 01:49:59;;;;;;;13.60;5.60;;;;;;;15.66;41.10;99878.17;79519;1297;3013011;-70
2023/05/14 01:52:26;;;;;;;9.40;5.70;;;;;;;15.67;40.84;99876.30;79645;1291;3011821;-71
2023/05/14 01:54:54;;;;;;;12.30;4.90;;;;;;;15.67;40.84;99882.34;78345;1297;3026395;-68
2023/05/14 01:57:20;;;;;;;6.70;3.70;;;;;;;15.64;41.36;99884.47;79594;1293;3021164;-66
2023/05/14 01:59:47;;;;;;;5.40;3.50;;;;;;;15.55;41.67;99881.77;79564;1293;3013177;-73
2023/05/14 02:02:15;;;;;;;9.50;3.90;;;;;;;15.50;41.83;99882.16;78379;1296;3027349;-72
2023/05/14 02:04:41;;;;;;;9.40;4.10;;;;;;;15.43;42.19;99882.69;79619;1297;3013450;-72
2023/05/14 02:07:08;;;;;;;10.50;5.20;;;;;;;15.40;41.83;99883.25;79613;1297;3012072;-73
2023/05/14 02:09:36;;;;;;;10.80;4.90;;;;;;;15.41;41.90;99882.83;78394;1297;3026444;-66
2023/05/14 02:12:03;;;;;;;8.50;4.40;;;;;;;15.47;41.72;99885.86;79720;1292;3012989;-64
2023/05/14 02:14:30;;;;;;;9.20;4.50;;;;;;;15.51;41.23;99884.92;79830;1292;3011941;-70
2023/05/14 02:16:58;;;;;;;11.60;4.80;;;;;;;15.50;41.69;99886.73;78491;1291;3027962;-72
2023/05/14 02:19:25;;;;;;;11.10;5.10;;;;;;;15.46;41.54;99882.29;79503;1293;3013450;-74
2023/05/14 02:21:52;;;;;;;13.00;5.40;;;;;;;15.40;41.78;99884.65;79513;1297;3011818;-67
2023/05/14 02:24:20;;;;;;;10.40;4.00;;;;;;;15.39;41.82;99881.55;78347;1296;3027106;-64
2023/05/14 02:26:46;;;;;;;7.20;4.00;;;;;;;15.36;41.56;99883.89;79778;1291;3013598;-71
2023/05/14 02:29:13;;;;;;;6.20;3.40;;;;;;;15.39;41.34;99879.61;79508;1292;3011580;-64
2023/05/14 02:31:41;;;;;;;7.80;3.80;;;;;;;15.43;41.04;99880.69;78344;1298;3025450;-65
2023/05/14 02:34:07;;;;;;;7.80;3.50;;;;;;;15.45;40.97;99881.79;79898;1296;3019651;-72
2023/05/14 02:36:34;;;;;;;12.50;4.20;;;;;;;15.47;41.26;99885.52;79622;1297;3011562;-67
2023/05/14 02:39:03;;;;;;;13.40;3.90;;;;;;;15.53;41.18;99880.84;78393;1295;3027161;-73
2023/05/14 02:41:30;;;;;;;5.70;3.20;;;;;;;15.52;40.78;99882.55;79636;1291;3013138;-72
2023/05/14 02:43:56;;;;;;;7.20;3.90;;;;;;;15.50;40.69;99885.17;79490;1292;3011656;-63
2023/05/14 02:46:24;;;;;;;7.30;4.70;;;;;;;15.49;41.15;99883.15;78275;1298;3052418;-71
2023/05/14 02:48:51;;;;;;;9.50;4.70;;;;;;;15.51;41.01;99883.35;79696;1297;3012973;-70
2023/05/14 02:51:19;;;;;;;16.20;6.60;;;;;;;15.57;40.71;99879.01;79583;1298;3011828;-67
2023/05/14 02:53:47;;;;;;;14.50;7.20;;;;;;;15.58;40.77;99878.55;78277;1297;3055425;-64
2023/05/14 02:56:14;;;;;;;16.60;6.00;;;;;;;15.54;41.19;99879.91;79711;1292;3014025;-79
2023/05/14 02:58:41;;;;;;;11.50;5.10;;;;;;;15.53;41.09;99877.89;79494;1292;3011859;-65
2023/05/14 03:01:09;;;;;;;9.30;4.90;;;;;;;15.54;40.96;99878.49;78416;1296;3029319;-70
2023/05/14 03:03:37;;;;;;;11.90;4.90;;;;;;;15.55;40.93;99878.06;79730;1292;3013717;-68
2023/05/14 03:06:04;;;;;;;13.70;6.00;;;;;;;15.64;40.64;99880.77;79617;1292;3011647;-65
2023/05/14 03:08:32;;;;;;;16.50;5.30;;;;;;;15.64;41.02;99880.95;78486;1292;3056647;-66
2023/05/14 03:10:59;;;;;;;13.20;4.80;;;;;;;15.66;40.83;99879.78;79581;1293;3013385;-63
2023/05/14 03:13:25;;;;;;;10.70;5.80;;;;;;;15.68;40.73;99883.48;79701;1292;3013155;-67
2023/05/14 03:15:53;;;;;;;11.00;5.00;;;;;;;15.68;40.89;99883.30;78295;1297;3025679;-69
2023/05/14 03:18:20;;;;;;;10.60;4.70;;;;;;;15.71;40.59;99890.10;79609;1296;3013383;-63
2023/05/14 03:20:47;;;;;;;10.40;4.10;;;;;;;15.75;40.69;99888.36;79653;1291;3011530;-66
2023/05/14 03:23:14;;;;;;;10.00;3.90;;;;;;;15.79;40.24;99892.50;78320;1297;3026167;-68
2023/05/14 03:25:41;;;;;;;9.90;4.80;;;;;;;15.86;40.01;99891.36;79602;1292;3013211;-67
2023/05/14 03:28:08;;;;;;;11.80;6.30;;;;;;;15.90;39.94;99896.48;79512;1292;3011636;-66
2023/05/14 03:30:36;;;;;;;17.00;6.80;;;;;;;15.94;39.88;99891.80;78327;1296;3052457;-70
2023/05/14 03:33:03;;;;;;;19.10;8.70;;;;;;;15.96;39.74;99893.77;79634;1292;3020686;-67
2023/05/14 03:35:30;;;;;;;17.60;7.90;;;;;;;15.99;39.89;99893.52;79774;1292;3011599;-64
2023/05/14 03:37:58;;;;;;;14.40;7.10;;;;;;;16.04;40.03;99894.36;78844;1296;3028394;-59
2023/05/14 03:40:25;;;;;;;11.30;6.10;;;;;;;16.07;39.89;99898.88;80412;1292;3013016;-62
2023/05/14 03:42:52;;;;;;;12.40;5.90;;;;;;;16.06;39.87;99900.22;80053;1292;3013083;-63
2023/05/14 03:45:20;;;;;;;11.20;5.30;;;;;;;16.11;39.79;99904.46;78726;1297;3028643;-63
2023/05/14 03:47:47;;;;;;;10.00;5.20;;;;;;;16.09;40.32;99905.09;79667;1296;3013751;-69
2023/05/14 03:50:14;;;;;;;10.90;4.50;;;;;;;16.18;40.22;99907.47;79563;1297;3012204;-64
2023/05/14 03:52:43;;;;;;;10.10;4.60;;;;;;;16.19;40.27;99909.99;78347;1296;3028686;-59
2023/05/14 03:55:09;;;;;;;11.20;4.90;;;;;;;16.17;40.33;99911.39;79696;1293;3014180;-61
2023/05/14 03:57:36;;;;;;;8.60;3.90;;;;;;;16.20;40.00;99906.19;79294;1292;3011759;-68
2023/05/14 04:00:06;;;;;;;6.40;3.00;;;;;;;16.28;39.69;99905.58;78346;1296;3052177;-65
2023/05/14 04:02:44;;;;;;;11.90;4.50;;;;;;;16.33;39.74;99904.85;78330;1295;3054059;-68
2023/05/14 04:05:11;;;;;;;8.50;4.00;;;;;;;16.40;39.83;99906.93;79510;1297;3014886;-67
2023/05/14 04:07:44;;;;;;;8.40;3.60;;;;;;;16.47;39.47;99901.33;79027;1292;3011654;-65
2023/05/14 04:10:12;;;;;;;9.20;3.30;;;;;;;16.54;39.59;99900.09;79658;1292;3013244;-62
2023/05/14 04:12:38;;;;;;;6.30;3.20;;;;;;;16.63;39.12;99905.36;79536;1297;3011186;-62
2023/05/14 04:15:07;;;;;;;10.00;4.10;;;;;;;16.70;39.16;99894.75;78481;1296;3050100;-64
2023/05/14 04:17:34;;;;;;;6.40;3.00;;;;;;;16.73;39.01;99896.80;79581;1297;3013227;-68
2023/05/14 04:20:00;;;;;;;6.00;3.00;;;;;;;16.81;38.95;99899.53;79453;1292;3011583;-63
2023/05/14 04:22:28;;;;;;;7.10;3.20;;;;;;;16.83;39.17;99899.14;78319;1294;3051175;-68
2023/05/14 04:24:55;;;;;;;10.80;3.20;;;;;;;16.88;39.08;99901.63;79658;1292;3012999;-70
2023/05/14 04:27:21;;;;;;;8.00;3.20;;;;;;;16.91;39.27;99899.60;79540;1296;3011781;-69
2023/05/14 04:29:49;;;;;;;6.50;3.20;;;;;;;16.96;39.20;99908.95;78330;1297;3028854;-67
2023/05/14 04:32:16;;;;;;;6.00;2.60;;;;;;;16.99;39.27;99901.48;79643;1297;3013167;-60
2023/05/14 04:34:43;;;;;;;4.50;2.70;;;;;;;17.08;39.29;99903.23;79485;1292;3013259;-68
2023/05/14 04:37:11;;;;;;;5.30;2.20;;;;;;;17.19;39.22;99901.98;78327;1306;3026037;-66
2023/05/14 04:39:38;;;;;;;4.60;2.40;;;;;;;17.30;38.75;99900.20;79519;1292;3020799;-72
2023/05/14 04:42:05;;;;;;;5.00;2.20;;;;;;;17.40;38.70;99900.11;79551;1295;3011944;-72
2023/05/14 04:44:34;;;;;;;7.90;2.50;;;;;;;17.52;38.46;99901.62;78322;1296;3050355;-66
2023/05/14 04:47:01;;;;;;;4.90;2.10;;;;;;;17.60;38.08;99905.30;79664;1292;3013435;-68
2023/05/14 04:49:27;;;;;;;6.80;3.10;;;;;;;17.66;37.91;99909.81;79589;1296;3011460;-67
2023/05/14 04:51:55;;;;;;;7.70;3.10;;;;;;;17.68;38.23;99911.42;78479;1291;3051713;-65
2023/05/14 04:54:22;;;;;;;5.90;3.40;;;;;;;17.75;38.13;99910.71;79710;1293;3013661;-70
2023/05/14 04:56:49;;;;;;;8.10;3.90;;;;;;;17.75;37.68;99909.45;79687;1292;3013097;-67
2023/05/14 04:59:17;;;;;;;8.60;4.30;;;;;;;17.77;37.84;99908.17;78489;1296;3049648;-63
2023/05/14 05:01:44;;;;;;;9.80;3.90;;;;;;;17.83;37.60;99910.94;79825;1297;3020578;-64
2023/05/14 05:04:11;;;;;;;7.80;4.00;;;;;;;17.83;37.78;99907.59;79705;1292;3013054;-62
2023/05/14 05:06:39;;;;;;;11.60;4.60;;;;;;;17.86;38.09;99905.84;78542;1292;3026082;-64
2023/05/14 05:09:05;;;;;;;12.30;4.40;;;;;;;17.96;38.22;99909.17;79546;1292;3012941;-72
2023/05/14 05:11:32;;;;;;;11.60;5.50;;;;;;;18.06;38.31;99909.50;79578;1294;3011641;-65
2023/05/14 05:14:00;;;;;;;11.10;5.30;;;;;;;18.04;37.70;99911.98;78405;1296;3028922;-65
2023/05/14 05:16:27;;;;;;;9.90;5.40;;;;;;;17.99;38.04;99913.15;79584;1296;3018894;-68
2023/05/14 05:18:53;;;;;;;9.40;5.80;;;;;;;18.03;38.17;99908.39;79817;1292;3011985;-64
2023/05/14 05:21:21;;;;;;;12.50;6.90;;;;;;;18.09;38.66;99907.37;78728;1295;3025825;-63
2023/05/14 05:23:47;;;;;;;9.20;6.20;;;;;;;18.17;38.44;99910.43;79692;1297;3013718;-66
2023/05/14 05:26:14;;;;;;;7.50;4.20;;;;;;;18.29;37.75;99911.16;79761;1297;3011568;-65
2023/05/14 05:28:41;;;;;;;5.90;3.30;;;;;;;18.33;38.30;99913.67;77810;1291;3051879;-62
2023/05/14 05:31:09;;;;;;;7.50;3.30;;;;;;;18.36;37.81;99914.77;78466;1296;3053763;-69
2023/05/14 05:33:35;;;;;;;6.90;2.40;;;;;;;18.36;37.91;99919.94;79659;1297;3013286;-63
2023/05/14 05:36:02;;;;;;;5.00;2.30;;;;;;;18.35;38.09;99919.81;79684;1293;3011249;-61
2023/05/14 05:38:32;;;;;;;5.20;2.10;;;;;;;18.44;38.44;99916.45;78443;1292;3049006;-66
2023/05/14 05:40:59;;;;;;;3.50;2.00;;;;;;;18.53;38.03;99917.05;79736;1293;3013603;-71
2023/05/14 05:43:27;;;;;;;3.20;2.10;;;;;;;18.52;37.35;99915.95;79736;1298;3011879;-64
2023/05/14 05:45:55;;;;;;;5.10;2.00;;;;;;;18.51;37.42;99921.09;78530;1296;3052636;-69
2023/05/14 05:48:21;;;;;;;7.20;2.20;;;;;;;18.44;37.76;99920.64;79883;1292;3012684;-65
2023/05/14 05:50:48;;;;;;;6.80;2.40;;;;;;;18.46;38.23;99922.42;79470;1292;3013076;-67
2023/05/14 05:53:16;;;;;;;4.30;2.40;;;;;;;18.41;38.22;99922.52;78468;1292;3028952;-68
2023/05/14 05:55:43;;;;;;;7.60;2.40;;;;;;;18.34;39.02;99915.86;79545;1296;3013217;-70
2023/05/14 05:58:09;;;;;;;8.20;2.50;;;;;;;18.34;38.74;99916.38;79695;1296;3011632;-67
2023/05/14 06:00:37;;;;;;;4.70;2.20;;;;;;;18.36;39.01;99914.92;78402;1298;3025019;-65
2023/05/14 06:03:04;;;;;;;4.60;2.40;;;;;;;18.49;38.77;99911.01;79729;1291;3013492;-65
2023/05/14 06:05:31;;;;;;;9.30;2.20;;;;;;;18.59;38.53;99917.27;79656;1292;3011502;-67
2023/05/14 06:07:59;;;;;;;4.80;2.30;;;;;;;18.64;38.43;99916.48;78341;1292;3048796;-68
2023/05/14 06:10:26;;;;;;;5.90;2.60;;;;;;;18.76;38.59;99913.27;79590;1298;3019388;-67
2023/05/14 06:12:53;;;;;;;4.50;2.30;;;;;;;18.83;38.39;99910.38;79639;1292;3011545;-70
2023/05/14 06:15:21;;;;;;;7.50;2.40;;;;;;;18.90;37.81;99905.38;78463;1297;3026009;-67
2023/05/14 06:17:48;;;;;;;8.40;2.70;;;;;;;18.82;37.96;99905.34;79740;1298;3013710;-66
2023/05/14 06:20:14;;;;;;;8.20;2.70;;;;;;;18.88;38.33;99907.83;79717;1292;3013637;-73
2023/05/14 06:22:43;;;;;;;4.10;2.30;;;;;;;18.98;38.09;99911.42;78330;1296;3027676;-68
2023/05/14 06:25:10;;;;;;;5.40;2.70;;;;;;;18.99;37.77;99914.82;79725;1291;3018470;-64
2023/05/14 06:27:37;;;;;;;8.30;3.00;;;;;;;19.02;37.70;99909.98;79795;1292;3011802;-65
2023/05/14 06:30:06;;;;;;;7.20;3.20;;;;;;;19.21;37.51;99907.91;78360;1298;3052755;-66
2023/05/14 06:32:33;;;;;;;7.20;2.80;;;;;;;19.38;37.33;99908.70;79768;1291;3011757;-69
2023/05/14 06:35:00;;;;;;;7.70;2.50;;;;;;;19.42;37.44;99910.45;79616;1292;3011775;-64
2023/05/14 06:37:28;;;;;;;7.10;3.20;;;;;;;19.47;37.42;99914.47;78294;1297;3049470;-66
2023/05/14 06:39:54;;;;;;;7.20;3.70;;;;;;;19.55;37.85;99913.91;79744;1292;3013465;-64
2023/05/14 06:42:21;;;;;;;11.80;4.40;;;;;;;19.64;37.66;99914.21;79611;1292;3011688;-64
2023/05/14 06:44:49;;;;;;;9.10;3.80;;;;;;;19.64;37.28;99915.09;78400;1291;3028239;-65
2023/05/14 06:47:15;;;;;;;9.50;3.50;;;;;;;19.76;36.72;99913.79;79752;1295;3018996;-68
2023/05/14 06:51:16;;;;;;;6.90;3.40;;;;;;;19.88;36.59;99914.14;80183;1299;3012945;-70
2023/05/14 06:53:43;;;;;;;10.60;4.50;;;;;;;19.94;36.52;99911.27;78899;1304;3013833;-65
2023/05/14 06:56:09;;;;;;;6.70;4.00;;;;;;;20.04;37.00;99913.16;79090;1304;3011817;-69
2023/05/14 06:58:37;;;;;;;11.50;3.60;;;;;;;20.15;36.83;99913.02;77772;1303;3028300;-66
2023/05/14 07:01:04;;;;;;;13.40;4.70;;;;;;;20.13;36.71;99912.33;79150;1304;3013564;-67
2023/05/14 07:03:31;;;;;;;6.80;3.30;;;;;;;20.16;36.79;99907.41;78376;1303;3013096;-68
2023/05/14 07:05:59;;;;;;;8.20;3.70;;;;;;;20.24;36.76;99905.22;78050;1301;3049307;-66
2023/05/14 07:08:26;;;;;;;6.30;3.50;;;;;;;20.14;37.13;99904.30;79319;1303;3012878;-65
2023/05/14 07:10:53;;;;;;;7.70;3.00;;;;;;;20.14;36.42;99903.50;79403;1298;3012032;-67
2023/05/14 07:13:21;;;;;;;5.80;3.00;;;;;;;20.03;35.94;99904.77;78458;1298;3028795;-66
2023/05/14 07:15:47;;;;;;;7.40;3.60;;;;;;;20.03;34.46;99901.91;79261;1302;3013462;-68
2023/05/14 07:18:14;;;;;;;11.60;3.90;;;;;;;20.15;34.25;99903.14;79175;1301;3013739;-68
2023/05/14 07:20:42;;;;;;;8.50;3.20;;;;;;;20.29;34.15;99897.88;78151;1301;3025601;-70
2023/05/14 07:23:09;;;;;;;9.20;3.20;;;;;;;20.38;33.75;99896.34;79362;1302;3018558;-67
2023/05/14 07:25:36;;;;;;;4.40;2.60;;;;;;;20.55;34.40;99892.89;79124;1298;3011797;-67
2023/05/14 07:28:03;;;;;;;4.40;2.50;;;;;;;20.69;33.79;99891.76;78247;1302;3028594;-63
2023/05/14 07:30:31;;;;;;;10.50;2.80;;;;;;;20.68;33.36;99896.83;79242;1301;3013892;-66
2023/05/14 07:32:58;;;;;;;4.60;2.60;;;;;;;20.74;33.54;99894.27;79141;1298;3011619;-68
2023/05/14 07:35:26;;;;;;;8.60;4.80;;;;;;;20.87;33.44;99889.39;78148;1298;3049045;-64
2023/05/14 07:37:53;;;;;;;15.40;5.70;;;;;;;20.83;32.42;99892.06;79374;1298;3013472;-69
2023/05/14 07:40:19;;;;;;;12.20;6.10;;;;;;;20.89;32.47;99888.11;79154;1302;3011644;-68
2023/05/14 07:42:47;;;;;;;10.50;5.90;;;;;;;20.88;32.34;99893.35;77902;1303;3028298;-64
2023/05/14 07:45:14;;;;;;;10.10;5.20;;;;;;;20.85;32.02;99890.75;79228;1301;3013451;-66
2023/05/14 07:47:41;;;;;;;10.10;5.20;;;;;;;21.00;32.01;99891.14;79549;1297;3011942;-65
2023/05/14 07:50:09;;;;;;;10.30;4.70;;;;;;;21.15;31.95;99887.73;78162;1303;3027933;-63
2023/05/14 07:52:36;;;;;;;6.60;4.20;;;;;;;21.18;31.00;99887.42;79494;1298;3013078;-67
2023/05/14 07:55:03;;;;;;;13.30;5.70;;;;;;;21.28;31.06;99888.02;79415;1297;3011526;-67
2023/05/14 07:57:31;;;;;;;11.60;5.70;;;;;;;21.32;31.65;99877.27;78164;1303;3052246;-66
2023/05/14 07:59:57;;;;;;;11.40;4.90;;;;;;;21.44;30.80;99882.32;79394;1297;3013026;-65
2023/05/14 08:02:24;;;;;;;7.60;4.30;;;;;;;21.54;29.47;99882.61;79258;1298;3012304;-65
2023/05/14 08:04:52;;;;;;;6.30;3.80;;;;;;;21.60;28.73;99883.13;78094;1302;3028332;-61
2023/05/14 08:07:19;;;;;;;6.80;3.40;;;;;;;21.74;29.25;99877.71;79169;1303;3012967;-68
2023/05/14 08:09:46;;;;;;;7.80;3.30;;;;;;;21.98;29.09;99876.05;79177;1298;3011568;-65
2023/05/14 08:12:14;;;;;;;10.10;5.20;;;;;;;22.22;28.84;99873.44;78028;1301;3028996;-61
2023/05/14 08:14:41;;;;;;;8.30;3.80;;;;;;;22.23;28.56;99878.88;79366;1297;3013510;-65
2023/05/14 08:17:08;;;;;;;11.20;4.90;;;;;;;22.24;28.36;99877.67;79195;1297;3013453;-66
2023/05/14 08:19:36;;;;;;;7.30;3.10;;;;;;;22.39;27.82;99877.79;78158;1303;3049977;-71
2023/05/14 08:22:02;;;;;;;4.80;2.20;;;;;;;22.62;27.49;99877.91;79535;1297;3012946;-68
2023/05/14 08:24:29;;;;;;;5.20;1.80;;;;;;;22.58;25.81;99876.33;79591;1301;3012021;-65
2023/05/14 08:26:57;;;;;;;5.20;2.10;;;;;;;22.90;26.69;99868.51;78039;1302;3028450;-68
2023/05/14 08:29:24;;;;;;;6.10;2.00;;;;;;;23.22;26.95;99863.67;79497;1302;3013653;-69
2023/05/14 08:31:51;;;;;;;8.10;2.70;;;;;;;23.26;26.46;99871.55;79507;1298;3013546;-67
2023/05/14 08:34:19;;;;;;;4.00;2.60;;;;;;;23.38;26.74;99862.71;78537;1297;3049588;-64
2023/05/14 08:36:46;;;;;;;6.50;3.20;;;;;;;23.54;26.43;99858.67;79696;1303;3013481;-64
2023/05/14 08:39:12;;;;;;;6.10;2.80;;;;;;;23.60;26.64;99860.66;79650;1298;3012252;-65
2023/05/14 08:41:40;;;;;;;8.90;3.40;;;;;;;23.51;26.82;99858.83;78187;1302;3026170;-68
2023/05/14 08:44:14;;;;;;;5.70;3.30;;;;;;;23.54;27.06;99852.52;79289;1297;3015974;-68
2023/05/14 08:46:41;;;;;;;6.60;3.00;;;;;;;23.48;27.26;99851.63;78197;1297;3056230;-62
2023/05/14 08:49:39;;;;;;;8.90;3.70;;;;;;;23.30;26.92;99851.04;78979;1298;3013028;-65
2023/05/14 08:52:10;;;;;;;5.40;3.10;;;;;;;23.01;26.40;99852.18;77704;1302;3050151;-62
2023/05/14 08:54:37;;;;;;;5.00;2.90;;;;;;;23.18;26.60;99849.29;79172;1303;3013101;-65
2023/05/14 08:57:08;;;;;;;4.90;2.50;;;;;;;23.28;27.21;99846.95;78701;1298;3012089;-63
2023/05/14 08:59:35;;;;;;;3.60;2.30;;;;;;;23.38;27.82;99846.42;79152;1298;3013071;-63
2023/05/14 09:02:02;;;;;;;4.70;1.80;;;;;;;23.31;27.65;99839.98;79164;1297;3011777;-62
2023/05/14 09:04:31;;;;;;;6.40;2.40;;;;;;;23.46;27.39;99840.20;78079;1295;3050111;-61
2023/05/14 09:06:59;;;;;;;3.70;2.10;;;;;;;23.30;26.92;99840.33;79266;1303;3012525;-63
2023/05/14 09:09:26;;;;;;;3.50;2.10;;;;;;;23.28;27.18;99838.45;79415;1297;3011623;-63
2023/05/14 09:11:54;;;;;;;5.10;2.90;;;;;;;23.54;27.05;99833.32;78032;1297;3052495;-61
2023/05/14 09:14:21;;;;;;;4.90;2.20;;;;;;;23.35;27.11;99828.20;79285;1301;3013511;-61
2023/05/14 09:16:48;;;;;;;9.70;2.50;;;;;;;23.25;27.82;99832.26;79193;1301;3011624;-62
2023/05/14 09:19:17;;;;;;;5.50;2.20;;;;;;;23.47;27.61;99827.25;78079;1302;3048469;-64
2023/05/14 09:21:45;;;;;;;8.80;2.30;;;;;;;23.72;26.96;99823.41;79300;1297;3013248;-62
2023/05/14 09:24:22;;;;;;;5.70;1.80;;;;;;;23.95;26.47;99819.98;79225;1302;3011455;-63
2023/05/14 09:26:55;;;;;;;5.30;2.40;;;;;;;24.21;25.93;99816.77;78070;1303;3053453;-60
2023/05/14 09:29:25;;;;;;;2.40;1.50;;;;;;;24.34;25.47;99809.55;79267;1298;3011564;-63
2023/05/14 09:31:54;;;;;;;1.80;1.60;;;;;;;24.54;25.34;99805.02;78472;1297;3050700;-65
2023/05/14 09:34:31;;;;;;;3.80;2.30;;;;;;;24.54;25.53;99802.14;79206;1301;3015681;-65
2023/05/14 09:37:03;;;;;;;3.50;2.00;;;;;;;24.52;25.92;99803.98;78085;1298;3055001;-65
2023/05/14 09:39:30;;;;;;;;;;;;;;;24.42;26.14;99804.13;79227;1297;3011443;-67
2023/05/14 09:41:58;;;;;;;4.90;2.60;;;;;;;24.16;26.57;99802.71;78493;1297;3052374;-64
2023/05/14 09:44:25;;;;;;;3.30;2.10;;;;;;;24.25;26.40;99797.70;79348;1298;3018512;-63
2023/05/14 09:46:52;;;;;;;4.30;1.80;;;;;;;24.28;26.25;99796.98;79250;1300;3011710;-65
2023/05/14 09:49:20;;;;;;;3.00;1.80;;;;;;;24.30;25.78;99794.13;78040;1297;3025654;-66
2023/05/14 09:51:47;;;;;;;3.20;2.00;;;;;;;24.39;25.68;99789.50;79242;1300;3013485;-62
2023/05/14 09:54:14;;;;;;;3.40;1.60;;;;;;;24.42;24.83;99790.48;79288;1300;3011647;-62
2023/05/14 09:56:42;;;;;;;2.90;1.70;;;;;;;24.61;23.48;99783.27;77999;1300;3053340;-66
2023/05/14 09:59:09;;;;;;;1.90;1.40;;;;;;;24.80;23.02;99784.48;79430;1300;3014218;-64
2023/05/14 10:01:36;;;;;;;3.10;1.70;;;;;;;25.07;22.97;99782.85;79308;1300;3011630;-64
2023/05/14 10:04:05;;;;;;;2.90;1.30;;;;;;;25.03;22.87;99777.50;78018;1301;3056050;-64
2023/05/14 10:06:37;;;;;;;5.30;1.50;;;;;;;24.72;22.63;99780.08;79300;1296;3013234;-66
2023/05/14 10:09:10;;;;;;;4.00;1.50;;;;;;;24.82;22.82;99776.19;77965;1296;3053208;-63
2023/05/14 10:11:37;;;;;;;3.10;1.70;;;;;;;25.13;22.93;99774.81;79168;1300;3011905;-61
2023/05/14 10:14:17;;;;;;;4.20;1.60;;;;;;;25.46;23.20;99775.35;78047;1301;3051698;-59
2023/05/14 10:16:50;;;;;;;1.90;1.50;;;;;;;25.76;22.66;99765.23;78240;1302;3053553;-64
2023/05/14 10:19:19;;;;;;;5.60;2.00;;;;;;;25.85;22.80;99754.11;79269;1296;3011618;-63
2023/05/14 10:21:48;;;;;;;5.90;2.10;;;;;;;25.96;22.48;99757.56;78126;1297;3050755;-64
2023/05/14 10:24:15;;;;;;;4.50;1.80;;;;;;;26.06;22.39;99761.45;79360;1298;3012549;-65
2023/05/14 10:26:41;;;;;;;5.40;1.60;;;;;;;26.07;22.55;99756.52;79198;1298;3011744;-64
2023/05/14 10:29:10;;;;;;;3.10;1.90;;;;;;;26.17;22.77;99749.30;78065;1300;3050204;-69
2023/05/14 10:31:54;;;;;;;3.10;1.50;;;;;;;25.87;22.41;99757.73;79491;1300;3013279;-69
2023/05/14 10:34:44;;;;;;;2.70;2.00;;;;;;;26.00;22.48;99745.64;77999;1302;3069515;-65
2023/05/14 10:37:24;;;;;;;2.50;1.70;;;;;;;26.15;22.68;99735.36;78113;1296;3050927;-67
2023/05/14 10:39:58;;;;;;;4.30;2.10;;;;;;;26.40;22.44;99733.09;77983;1297;3056105;-67
2023/05/14 10:42:31;;;;;;;5.70;2.30;;;;;;;26.39;22.47;99738.23;78911;1298;3011867;-65
2023/05/14 10:45:06;;;;;;;3.60;2.00;;;;;;;26.35;22.37;99733.19;79147;1302;3011658;-65
2023/05/14 10:47:34;;;;;;;;;;;;;;;26.22;22.30;99729.72;78023;1297;3052593;-66
2023/05/14 10:50:02;;;;;;;7.00;1.90;;;;;;;26.04;22.50;99733.38;79320;1299;3013475;-69
2023/05/14 10:52:29;;;;;;;7.20;2.30;;;;;;;26.11;22.69;99728.75;79157;1300;3011437;-67
2023/05/14 10:54:58;;;;;;;5.00;2.20;;;;;;;26.12;23.06;99731.50;77947;1303;3069630;-67
2023/05/14 10:57:27;;;;;;;6.30;2.90;;;;;;;25.72;22.98;99740.41;79424;1295;3015649;-65
2023/05/14 10:59:57;;;;;;;9.20;2.50;;;;;;;25.24;23.26;99740.88;78718;1297;3011428;-65
2023/05/14 11:02:25;;;;;;;8.10;2.40;;;;;;;25.14;23.48;99736.83;79482;1295;3013734;-60
2023/05/14 11:05:04;;;;;;;3.50;2.30;;;;;;;25.51;23.12;99735.20;79227;1297;3011707;-65
2023/05/14 11:07:33;;;;;;;4.60;2.60;;;;;;;25.89;22.68;99730.15;78043;1300;3052816;-67
2023/05/14 11:10:02;;;;;;;3.30;1.80;;;;;;;26.34;22.66;99728.00;79692;1298;3013796;-64
2023/05/14 11:12:35;;;;;;;6.20;1.90;;;;;;;26.73;22.07;99725.76;78959;1296;3011479;-65
2023/05/14 11:15:08;;;;;;;4.20;2.00;;;;;;;26.93;21.67;99723.23;79355;1298;3012149;-65
2023/05/14 11:17:37;;;;;;;6.70;1.60;;;;;;;27.04;21.75;99729.56;78042;1295;3055318;-63
2023/05/14 11:20:05;;;;;;;4.70;2.20;;;;;;;26.96;22.08;99733.13;79410;1295;3016292;-66
2023/05/14 11:22:33;;;;;;;4.80;1.90;;;;;;;26.69;22.34;99740.45;79306;1299;3011999;-67